sensor_id;sensor_type;location;lat;lon;timestamp;pressure;altitude;pressure_sealevel;temperature;humidity
34205;BME280;20471;49.680;20.074;2022-08-21T00:01:48;96715.94;;;18.74;76.70
34205;BME280;20471;49.680;20.074;2022-08-21T00:04:14;96712.11;;;18.75;76.73
34205;BME280;20471;49.680;20.074;2022-08-21T00:06:41;96703.36;;;18.76;76.74
34205;BME280;20471;49.680;20.074;2022-08-21T00:09:09;96710.47;;;18.77;76.81
34205;BME280;20471;49.680;20.074;2022-08-21T00:11:37;96706.10;;;18.73;76.92
34205;BME280;20471;49.680;20.074;2022-08-21T00:14:07;96707.23;;;18.67;76.99
34205;BME280;20471;49.680;20.074;2022-08-21T00:16:35;96702.86;;;18.66;77.09
34205;BME280;20471;49.680;20.074;2022-08-21T00:19:02;96694.94;;;18.67;77.12
34205;BME280;20471;49.680;20.074;2022-08-21T00:21:29;96686.73;;;18.67;77.11
34205;BME280;20471;49.680;20.074;2022-08-21T00:23:55;96687.28;;;18.69;77.13
34205;BME280;20471;49.680;20.074;2022-08-21T00:26:22;96687.55;;;18.70;77.12
34205;BME280;20471;49.680;20.074;2022-08-21T00:28:49;96684.55;;;18.69;77.22
34205;BME280;20471;49.680;20.074;2022-08-21T00:31:16;96683.45;;;18.67;77.27
34205;BME280;20471;49.680;20.074;2022-08-21T00:33:44;96692.48;;;18.63;77.26
34205;BME280;20471;49.680;20.074;2022-08-21T00:36:11;96690.30;;;18.62;77.32
34205;BME280;20471;49.680;20.074;2022-08-21T00:38:39;96689.48;;;18.62;77.37
34205;BME280;20471;49.680;20.074;2022-08-21T00:41:08;96688.11;;;18.64;77.42
34205;BME280;20471;49.680;20.074;2022-08-21T00:43:37;96686.19;;;18.65;77.46
34205;BME280;20471;49.680;20.074;2022-08-21T00:46:06;96688.66;;;18.64;77.51
34205;BME280;20471;49.680;20.074;2022-08-21T00:48:33;96675.27;;;18.62;77.45
34205;BME280;20471;49.680;20.074;2022-08-21T00:51:23;96669.25;;;18.63;77.45
34205;BME280;20471;49.680;20.074;2022-08-21T00:53:56;96673.89;;;18.65;77.40
34205;BME280;20471;49.680;20.074;2022-08-21T00:56:25;96673.89;;;18.65;77.46
34205;BME280;20471;49.680;20.074;2022-08-21T00:58:52;96672.80;;;18.66;77.42
34205;BME280;20471;49.680;20.074;2022-08-21T01:01:20;96673.89;;;18.65;77.41
34205;BME280;20471;49.680;20.074;2022-08-21T01:03:47;96666.52;;;18.65;77.43
34205;BME280;20471;49.680;20.074;2022-08-21T01:06:14;96663.23;;;18.66;77.42
34205;BME280;20471;49.680;20.074;2022-08-21T01:08:41;96654.48;;;18.66;77.40
34205;BME280;20471;49.680;20.074;2022-08-21T01:11:08;96651.20;;;18.67;77.41
34205;BME280;20471;49.680;20.074;2022-08-21T01:13:36;96650.38;;;18.66;77.41
34205;BME280;20471;49.680;20.074;2022-08-21T01:16:08;96641.92;;;18.63;77.41
34205;BME280;20471;49.680;20.074;2022-08-21T01:18:35;96639.50;;;18.59;77.49
34205;BME280;20471;49.680;20.074;2022-08-21T01:21:11;96635.11;;;18.50;77.62
34205;BME280;20471;49.680;20.074;2022-08-21T01:23:43;96638.44;;;18.45;77.72
34205;BME280;20471;49.680;20.074;2022-08-21T01:26:12;96640.34;;;18.42;77.83
34205;BME280;20471;49.680;20.074;2022-08-21T01:28:45;96638.98;;;18.42;77.92
34205;BME280;20471;49.680;20.074;2022-08-21T01:31:15;96628.33;;;18.43;77.94
34205;BME280;20471;49.680;20.074;2022-08-21T01:33:43;96619.85;;;18.44;77.94
34205;BME280;20471;49.680;20.074;2022-08-21T01:36:10;96623.13;;;18.44;77.90
34205;BME280;20471;49.680;20.074;2022-08-21T01:38:37;96628.32;;;18.45;77.84
34205;BME280;20471;49.680;20.074;2022-08-21T01:41:04;96627.77;;;18.46;77.82
34205;BME280;20471;49.680;20.074;2022-08-21T01:43:30;96626.67;;;18.47;77.81
34205;BME280;20471;49.680;20.074;2022-08-21T01:45:57;96625.86;;;18.44;77.85
34205;BME280;20471;49.680;20.074;2022-08-21T01:48:24;96621.50;;;18.38;77.84
34205;BME280;20471;49.680;20.074;2022-08-21T01:50:51;96619.86;;;18.36;77.87
34205;BME280;20471;49.680;20.074;2022-08-21T01:53:17;96617.41;;;18.38;77.87
34205;BME280;20471;49.680;20.074;2022-08-21T01:55:44;96619.59;;;18.35;77.82
34205;BME280;20471;49.680;20.074;2022-08-21T01:58:11;96620.18;;;18.30;77.81
34205;BME280;20471;49.680;20.074;2022-08-21T02:00:37;96616.63;;;18.29;77.88
34205;BME280;20471;49.680;20.074;2022-08-21T02:03:04;96623.19;;;18.28;77.88
34205;BME280;20471;49.680;20.074;2022-08-21T02:05:31;96622.91;;;18.27;77.86
34205;BME280;20471;49.680;20.074;2022-08-21T02:07:58;96610.89;;;18.28;77.82
34205;BME280;20471;49.680;20.074;2022-08-21T02:10:28;96602.98;;;18.27;77.73
34205;BME280;20471;49.680;20.074;2022-08-21T02:12:57;96600.79;;;18.26;77.66
34205;BME280;20471;49.680;20.074;2022-08-21T02:15:26;96600.25;;;18.24;77.62
34205;BME280;20471;49.680;20.074;2022-08-21T02:17:56;96600.83;;;18.21;77.60
34205;BME280;20471;49.680;20.074;2022-08-21T02:20:28;96601.37;;;18.21;77.68
34205;BME280;20471;49.680;20.074;2022-08-21T02:23:03;96592.09;;;18.19;77.69
34205;BME280;20471;49.680;20.074;2022-08-21T02:25:31;96595.64;;;18.17;77.63
34205;BME280;20471;49.680;20.074;2022-08-21T02:27:59;96598.66;;;18.13;77.60
34205;BME280;20471;49.680;20.074;2022-08-21T02:30:30;96589.95;;;18.11;77.57
34205;BME280;20471;49.680;20.074;2022-08-21T02:32:59;96588.04;;;18.09;77.56
34205;BME280;20471;49.680;20.074;2022-08-21T02:35:27;96586.67;;;18.07;77.49
34205;BME280;20471;49.680;20.074;2022-08-21T02:40:31;96588.05;;;18.02;77.42
34205;BME280;20471;49.680;20.074;2022-08-21T02:43:00;96585.59;;;18.00;77.41
34205;BME280;20471;49.680;20.074;2022-08-21T02:45:28;96589.17;;;17.98;77.45
34205;BME280;20471;49.680;20.074;2022-08-21T02:47:58;96583.71;;;17.98;77.41
34205;BME280;20471;49.680;20.074;2022-08-21T02:50:29;96588.63;;;17.96;77.35
34205;BME280;20471;49.680;20.074;2022-08-21T02:52:57;96582.89;;;17.95;77.29
34205;BME280;20471;49.680;20.074;2022-08-21T02:55:27;96582.62;;;17.94;77.27
34205;BME280;20471;49.680;20.074;2022-08-21T02:57:56;96583.98;;;17.91;77.29
34205;BME280;20471;49.680;20.074;2022-08-21T03:00:25;96584.27;;;17.90;77.28
34205;BME280;20471;49.680;20.074;2022-08-21T03:02:54;96587.81;;;17.88;77.34
34205;BME280;20471;49.680;20.074;2022-08-21T03:05:23;96585.39;;;17.84;77.38
34205;BME280;20471;49.680;20.074;2022-08-21T03:07:51;96584.84;;;17.82;77.38
34205;BME280;20471;49.680;20.074;2022-08-21T03:10:19;96581.30;;;17.81;77.33
34205;BME280;20471;49.680;20.074;2022-08-21T03:12:47;96578.83;;;17.80;77.25
34205;BME280;20471;49.680;20.074;2022-08-21T03:15:17;96585.11;;;17.78;77.16
34205;BME280;20471;49.680;20.074;2022-08-21T03:17:45;96588.96;;;17.67;77.04
34205;BME280;20471;49.680;20.074;2022-08-21T03:20:15;96588.95;;;17.54;77.29
34205;BME280;20471;49.680;20.074;2022-08-21T03:22:43;96592.22;;;17.53;77.57
34205;BME280;20471;49.680;20.074;2022-08-21T03:25:10;96588.68;;;17.55;77.65
34205;BME280;20471;49.680;20.074;2022-08-21T03:27:37;96593.59;;;17.56;77.62
34205;BME280;20471;49.680;20.074;2022-08-21T03:30:06;96589.77;;;17.54;77.57
34205;BME280;20471;49.680;20.074;2022-08-21T03:32:33;96592.77;;;17.55;77.54
34205;BME280;20471;49.680;20.074;2022-08-21T03:35:01;96592.77;;;17.55;77.57
34205;BME280;20471;49.680;20.074;2022-08-21T03:37:28;96597.41;;;17.57;77.58
34205;BME280;20471;49.680;20.074;2022-08-21T03:39:55;96597.14;;;17.56;77.62
34205;BME280;20471;49.680;20.074;2022-08-21T03:42:22;96601.51;;;17.57;77.61
34205;BME280;20471;49.680;20.074;2022-08-21T03:44:49;96602.05;;;17.57;77.67
34205;BME280;20471;49.680;20.074;2022-08-21T03:47:15;96599.87;;;17.56;77.70
34205;BME280;20471;49.680;20.074;2022-08-21T03:49:42;96600.41;;;17.56;77.81
34205;BME280;20471;49.680;20.074;2022-08-21T03:52:09;96605.59;;;17.57;77.91
34205;BME280;20471;49.680;20.074;2022-08-21T03:54:35;96608.87;;;17.59;77.95
34205;BME280;20471;49.680;20.074;2022-08-21T03:57:02;96603.42;;;17.59;78.00
34205;BME280;20471;49.680;20.074;2022-08-21T03:59:29;96604.52;;;17.61;78.06
34205;BME280;20471;49.680;20.074;2022-08-21T04:01:58;96609.42;;;17.56;78.03
34205;BME280;20471;49.680;20.074;2022-08-21T04:04:27;96604.25;;;17.47;78.04
34205;BME280;20471;49.680;20.074;2022-08-21T04:06:55;96611.06;;;17.42;78.19
34205;BME280;20471;49.680;20.074;2022-08-21T04:09:23;96613.52;;;17.41;78.33
34205;BME280;20471;49.680;20.074;2022-08-21T04:11:51;96615.98;;;17.45;78.45
34205;BME280;20471;49.680;20.074;2022-08-21T04:14:19;96621.17;;;17.49;78.49
34205;BME280;20471;49.680;20.074;2022-08-21T04:16:46;96624.70;;;17.55;78.53
34205;BME280;20471;49.680;20.074;2022-08-21T04:19:13;96616.52;;;17.57;78.48
34205;BME280;20471;49.680;20.074;2022-08-21T04:21:40;96623.07;;;17.61;78.52
34205;BME280;20471;49.680;20.074;2022-08-21T04:24:08;96623.89;;;17.64;78.57
34205;BME280;20471;49.680;20.074;2022-08-21T04:26:37;96624.44;;;17.67;78.58
34205;BME280;20471;49.680;20.074;2022-08-21T04:29:05;96626.35;;;17.69;78.59
34205;BME280;20471;49.680;20.074;2022-08-21T04:31:35;96618.72;;;17.71;78.71
34205;BME280;20471;49.680;20.074;2022-08-21T04:34:04;96623.90;;;17.72;78.75
34205;BME280;20471;49.680;20.074;2022-08-21T04:36:32;96621.41;;;17.76;78.88
34205;BME280;20471;49.680;20.074;2022-08-21T04:38:58;96613.50;;;17.77;78.96
34205;BME280;20471;49.680;20.074;2022-08-21T04:41:25;96620.05;;;17.78;79.15
34205;BME280;20471;49.680;20.074;2022-08-21T04:43:52;96622.53;;;17.75;79.22
34205;BME280;20471;49.680;20.074;2022-08-21T04:46:21;96622.81;;;17.73;79.34
34205;BME280;20471;49.680;20.074;2022-08-21T04:48:49;96624.14;;;17.76;79.45
34205;BME280;20471;49.680;20.074;2022-08-21T04:51:19;96622.27;;;17.74;79.52
34205;BME280;20471;49.680;20.074;2022-08-21T04:53:53;96621.72;;;17.74;79.53
34205;BME280;20471;49.680;20.074;2022-08-21T04:56:28;96626.63;;;17.75;79.52
34205;BME280;20471;49.680;20.074;2022-08-21T04:59:05;96627.15;;;17.77;79.50
34205;BME280;20471;49.680;20.074;2022-08-21T05:01:37;96621.14;;;17.80;79.62
34205;BME280;20471;49.680;20.074;2022-08-21T05:04:05;96620.05;;;17.81;79.63
34205;BME280;20471;49.680;20.074;2022-08-21T05:06:36;96624.15;;;17.86;79.65
34205;BME280;20471;49.680;20.074;2022-08-21T05:09:04;96629.58;;;17.91;79.66
34205;BME280;20471;49.680;20.074;2022-08-21T05:11:32;96628.48;;;17.92;79.64
34205;BME280;20471;49.680;20.074;2022-08-21T05:13:59;96624.94;;;17.96;79.69
34205;BME280;20471;49.680;20.074;2022-08-21T05:16:25;96628.19;;;18.01;79.66
34205;BME280;20471;49.680;20.074;2022-08-21T05:18:53;96623.00;;;18.05;79.73
34205;BME280;20471;49.680;20.074;2022-08-21T05:21:19;96621.62;;;18.10;79.69
34205;BME280;20471;49.680;20.074;2022-08-21T05:23:46;96626.78;;;18.14;79.77
34205;BME280;20471;49.680;20.074;2022-08-21T05:26:13;96627.60;;;18.19;79.78
34205;BME280;20471;49.680;20.074;2022-08-21T05:28:39;96628.11;;;18.24;79.87
34205;BME280;20471;49.680;20.074;2022-08-21T05:31:06;96619.91;;;18.26;79.91
34205;BME280;20471;49.680;20.074;2022-08-21T05:33:33;96627.01;;;18.30;79.92
34205;BME280;20471;49.680;20.074;2022-08-21T05:35:59;96627.83;;;18.33;80.01
34205;BME280;20471;49.680;20.074;2022-08-21T05:38:26;96635.44;;;18.36;79.98
34205;BME280;20471;49.680;20.074;2022-08-21T05:40:54;96631.61;;;18.40;79.98
34205;BME280;20471;49.680;20.074;2022-08-21T05:43:21;96632.16;;;18.42;79.94
34205;BME280;20471;49.680;20.074;2022-08-21T05:45:48;96640.63;;;18.43;79.89
34205;BME280;20471;49.680;20.074;2022-08-21T05:48:18;96637.07;;;18.42;79.97
34205;BME280;20471;49.680;20.074;2022-08-21T05:50:47;96633.79;;;18.43;79.99
34205;BME280;20471;49.680;20.074;2022-08-21T05:53:15;96634.60;;;18.46;79.97
34205;BME280;20471;49.680;20.074;2022-08-21T05:55:43;96635.12;;;18.48;80.01
34205;BME280;20471;49.680;20.074;2022-08-21T05:58:15;96633.75;;;18.48;79.96
34205;BME280;20471;49.680;20.074;2022-08-21T06:00:44;96630.46;;;18.51;79.95
34205;BME280;20471;49.680;20.074;2022-08-21T06:03:29;96633.74;;;18.53;79.96
34205;BME280;20471;49.680;20.074;2022-08-21T06:05:50;96641.11;;;18.55;80.05
34205;BME280;20471;49.680;20.074;2022-08-21T06:08:17;96643.84;;;18.55;80.13
34205;BME280;20471;49.680;20.074;2022-08-21T06:10:46;96640.84;;;18.54;80.22
34205;BME280;20471;49.680;20.074;2022-08-21T06:13:14;96652.05;;;18.52;80.19
34205;BME280;20471;49.680;20.074;2022-08-21T06:15:42;96647.41;;;18.53;80.23
34205;BME280;20471;49.680;20.074;2022-08-21T06:18:09;96645.48;;;18.53;80.21
34205;BME280;20471;49.680;20.074;2022-08-21T06:20:36;96647.42;;;18.58;80.30
34205;BME280;20471;49.680;20.074;2022-08-21T06:23:04;96649.29;;;18.65;80.30
34205;BME280;20471;49.680;20.074;2022-08-21T06:25:31;96642.45;;;18.70;80.40
34205;BME280;20471;49.680;20.074;2022-08-21T06:28:04;96643.77;;;18.75;80.36
34205;BME280;20471;49.680;20.074;2022-08-21T06:30:34;96636.09;;;18.82;80.31
34205;BME280;20471;49.680;20.074;2022-08-21T06:33:03;96641.50;;;18.90;80.31
34205;BME280;20471;49.680;20.074;2022-08-21T06:35:30;96638.77;;;18.92;80.12
34205;BME280;20471;49.680;20.074;2022-08-21T06:37:57;96634.09;;;18.95;80.12
34205;BME280;20471;49.680;20.074;2022-08-21T06:40:25;96635.41;;;19.00;80.17
34205;BME280;20471;49.680;20.074;2022-08-21T06:42:53;96641.41;;;19.05;80.09
34205;BME280;20471;49.680;20.074;2022-08-21T06:45:21;96637.81;;;19.10;80.05
34205;BME280;20471;49.680;20.074;2022-08-21T06:47:48;96636.15;;;19.14;79.99
34205;BME280;20471;49.680;20.074;2022-08-21T06:50:14;96639.69;;;19.17;79.95
34205;BME280;20471;49.680;20.074;2022-08-21T06:52:41;96640.50;;;19.20;79.80
34205;BME280;20471;49.680;20.074;2022-08-21T06:55:12;96644.28;;;19.24;79.75
34205;BME280;20471;49.680;20.074;2022-08-21T06:57:37;96645.63;;;19.26;79.63
34205;BME280;20471;49.680;20.074;2022-08-21T07:00:05;96647.27;;;19.27;79.48
34205;BME280;20471;49.680;20.074;2022-08-21T07:02:34;96643.98;;;19.28;79.48
34205;BME280;20471;49.680;20.074;2022-08-21T07:05:01;96649.16;;;19.32;79.52
34205;BME280;20471;49.680;20.074;2022-08-21T07:07:27;96641.72;;;19.37;79.49
34205;BME280;20471;49.680;20.074;2022-08-21T07:09:54;96644.42;;;19.42;79.49
34205;BME280;20471;49.680;20.074;2022-08-21T07:12:20;96638.89;;;19.48;79.44
34205;BME280;20471;49.680;20.074;2022-08-21T07:14:47;96641.65;;;19.50;79.27
34205;BME280;20471;49.680;20.074;2022-08-21T07:17:14;96645.72;;;19.55;79.23
34205;BME280;20471;49.680;20.074;2022-08-21T07:19:41;96644.30;;;19.58;79.26
34205;BME280;20471;49.680;20.074;2022-08-21T07:22:08;96638.25;;;19.63;79.22
34205;BME280;20471;49.680;20.074;2022-08-21T07:24:34;96635.98;;;19.70;79.10
34205;BME280;20471;49.680;20.074;2022-08-21T07:27:01;96638.95;;;19.76;79.05
34205;BME280;20471;49.680;20.074;2022-08-21T07:29:28;96643.80;;;19.85;78.92
34205;BME280;20471;49.680;20.074;2022-08-21T07:31:54;96634.44;;;19.91;78.95
34205;BME280;20471;49.680;20.074;2022-08-21T07:34:21;96639.03;;;19.95;78.90
34205;BME280;20471;49.680;20.074;2022-08-21T07:36:48;96645.02;;;20.00;78.86
34205;BME280;20471;49.680;20.074;2022-08-21T07:39:14;96649.02;;;20.10;78.78
34205;BME280;20471;49.680;20.074;2022-08-21T07:41:41;96651.11;;;20.18;78.58
34205;BME280;20471;49.680;20.074;2022-08-21T07:44:08;96651.86;;;20.26;78.52
34205;BME280;20471;49.680;20.074;2022-08-21T07:46:34;96641.35;;;20.33;78.37
34205;BME280;20471;49.680;20.074;2022-08-21T07:49:01;96645.11;;;20.42;78.26
34205;BME280;20471;49.680;20.074;2022-08-21T07:51:28;96636.81;;;20.50;78.17
34205;BME280;20471;49.680;20.074;2022-08-21T07:53:57;96640.81;;;20.58;77.94
34205;BME280;20471;49.680;20.074;2022-08-21T07:56:26;96640.77;;;20.63;77.83
34205;BME280;20471;49.680;20.074;2022-08-21T07:58:53;96636.59;;;20.65;77.86
34205;BME280;20471;49.680;20.074;2022-08-21T08:01:21;96634.91;;;20.69;77.69
34205;BME280;20471;49.680;20.074;2022-08-21T08:03:49;96631.55;;;20.75;77.56
34205;BME280;20471;49.680;20.074;2022-08-21T08:06:15;96633.95;;;20.79;77.57
34205;BME280;20471;49.680;20.074;2022-08-21T08:08:45;96638.30;;;20.82;77.44
34205;BME280;20471;49.680;20.074;2022-08-21T08:11:12;96633.63;;;20.83;77.26
34205;BME280;20471;49.680;20.074;2022-08-21T08:13:45;96634.70;;;20.84;77.24
34205;BME280;20471;49.680;20.074;2022-08-21T08:16:13;96628.66;;;20.85;77.22
34205;BME280;20471;49.680;20.074;2022-08-21T08:18:40;96625.34;;;20.88;77.15
34205;BME280;20471;49.680;20.074;2022-08-21T08:21:08;96626.09;;;20.91;77.15
34205;BME280;20471;49.680;20.074;2022-08-21T08:23:36;96621.69;;;20.93;76.95
34205;BME280;20471;49.680;20.074;2022-08-21T08:26:03;96621.69;;;20.93;76.95
34205;BME280;20471;49.680;20.074;2022-08-21T08:28:31;96632.60;;;20.98;77.01
34205;BME280;20471;49.680;20.074;2022-08-21T08:30:59;96625.45;;;20.99;77.17
34205;BME280;20471;49.680;20.074;2022-08-21T08:33:26;96623.72;;;21.03;77.23
34205;BME280;20471;49.680;20.074;2022-08-21T08:35:54;96625.06;;;21.06;77.13
34205;BME280;20471;49.680;20.074;2022-08-21T08:38:23;96623.37;;;21.10;77.06
34205;BME280;20471;49.680;20.074;2022-08-21T08:40:58;96620.83;;;21.13;77.04
34205;BME280;20471;49.680;20.074;2022-08-21T08:43:48;96627.39;;;21.15;77.13
34205;BME280;20471;49.680;20.074;2022-08-21T08:46:15;96628.47;;;21.16;77.01
34205;BME280;20471;49.680;20.074;2022-08-21T08:48:51;96632.03;;;21.19;76.87
34205;BME280;20471;49.680;20.074;2022-08-21T08:51:35;96633.66;;;21.18;76.76
34205;BME280;20471;49.680;20.074;2022-08-21T08:54:07;96633.95;;;21.16;76.68
34205;BME280;20471;49.680;20.074;2022-08-21T08:56:35;96633.70;;;21.15;76.65
34205;BME280;20471;49.680;20.074;2022-08-21T09:01:37;96630.69;;;21.14;76.89
34205;BME280;20471;49.680;20.074;2022-08-21T09:04:04;96633.76;;;21.13;76.94
34205;BME280;20471;49.680;20.074;2022-08-21T09:11:57;96629.05;;;21.13;76.97
34205;BME280;20471;49.680;20.074;2022-08-21T09:20:23;96621.84;;;21.23;77.30
34205;BME280;20471;49.680;20.074;2022-08-21T09:26:07;96616.51;;;21.29;77.02
34205;BME280;20471;49.680;20.074;2022-08-21T09:28:35;96622.23;;;21.32;77.04
34205;BME280;20471;49.680;20.074;2022-08-21T09:31:07;96615.33;;;21.35;76.96
34205;BME280;20471;49.680;20.074;2022-08-21T09:33:36;96614.70;;;21.38;76.94
34205;BME280;20471;49.680;20.074;2022-08-21T09:36:03;96616.83;;;21.43;76.96
34205;BME280;20471;49.680;20.074;2022-08-21T09:38:33;96611.04;;;21.45;76.97
34205;BME280;20471;49.680;20.074;2022-08-21T09:41:05;96614.86;;;21.46;76.90
34205;BME280;20471;49.680;20.074;2022-08-21T09:43:35;96607.70;;;21.48;76.84
34205;BME280;20471;49.680;20.074;2022-08-21T09:46:08;96615.05;;;21.50;76.90
34205;BME280;20471;49.680;20.074;2022-08-21T09:48:43;96614.20;;;21.52;76.83
34205;BME280;20471;49.680;20.074;2022-08-21T09:51:16;96618.02;;;21.53;76.85
34205;BME280;20471;49.680;20.074;2022-08-21T09:53:49;96615.84;;;21.53;76.79
34205;BME280;20471;49.680;20.074;2022-08-21T09:56:33;96613.65;;;21.52;76.79
34205;BME280;20471;49.680;20.074;2022-08-21T09:59:28;96614.17;;;21.54;76.84
34205;BME280;20471;49.680;20.074;2022-08-21T10:02:00;96599.36;;;21.53;76.81
34205;BME280;20471;49.680;20.074;2022-08-21T10:04:33;96611.34;;;21.60;76.92
34205;BME280;20471;49.680;20.074;2022-08-21T10:09:36;96606.22;;;21.53;77.21
34205;BME280;20471;49.680;20.074;2022-08-21T10:12:21;96608.03;;;21.44;76.81
34205;BME280;20471;49.680;20.074;2022-08-21T10:20:33;96606.14;;;21.42;77.30
34205;BME280;20471;49.680;20.074;2022-08-21T10:26:10;96589.04;;;21.47;77.68
34205;BME280;20471;49.680;20.074;2022-08-21T10:31:47;96596.36;;;21.68;77.43
34205;BME280;20471;49.680;20.074;2022-08-21T10:39:57;96610.16;;;21.63;77.84
34205;BME280;20471;49.680;20.074;2022-08-21T10:45:25;96588.12;;;21.52;77.85
34205;BME280;20471;49.680;20.074;2022-08-21T10:48:02;96596.95;;;21.65;78.17
34205;BME280;20471;49.680;20.074;2022-08-21T10:55:58;96616.63;;;21.86;77.67
34205;BME280;20471;49.680;20.074;2022-08-21T10:58:36;96615.73;;;21.90;77.44
34205;BME280;20471;49.680;20.074;2022-08-21T11:01:12;96612.38;;;21.93;77.25
34205;BME280;20471;49.680;20.074;2022-08-21T11:03:59;96609.37;;;21.92;77.28
34205;BME280;20471;49.680;20.074;2022-08-21T11:06:39;96609.16;;;21.89;76.94
34205;BME280;20471;49.680;20.074;2022-08-21T11:09:18;96609.16;;;21.89;76.94
34205;BME280;20471;49.680;20.074;2022-08-21T11:12:02;96611.61;;;21.90;77.08
34205;BME280;20471;49.680;20.074;2022-08-21T11:15:00;96611.53;;;21.96;77.30
34205;BME280;20471;49.680;20.074;2022-08-21T11:20:40;96584.17;;;21.88;77.02
34205;BME280;20471;49.680;20.074;2022-08-21T11:23:14;96607.28;;;22.03;76.94
34205;BME280;20471;49.680;20.074;2022-08-21T11:28:30;96608.81;;;21.93;76.83
34205;BME280;20471;49.680;20.074;2022-08-21T11:31:23;96608.81;;;21.93;76.83
34205;BME280;20471;49.680;20.074;2022-08-21T11:36:59;96617.81;;;21.82;76.58
34205;BME280;20471;49.680;20.074;2022-08-21T11:42:46;96614.20;;;21.52;76.52
34205;BME280;20471;49.680;20.074;2022-08-21T11:45:45;96614.20;;;21.52;76.52
34205;BME280;20471;49.680;20.074;2022-08-21T11:51:25;96615.69;;;21.28;76.81
34205;BME280;20471;49.680;20.074;2022-08-21T11:54:03;96619.09;;;21.23;76.78
34205;BME280;20471;49.680;20.074;2022-08-21T11:59:08;96624.89;;;21.00;76.57
34205;BME280;20471;49.680;20.074;2022-08-21T12:01:41;96626.77;;;20.83;76.42
34205;BME280;20471;49.680;20.074;2022-08-21T12:07:13;96616.14;;;20.36;76.88
34205;BME280;20471;49.680;20.074;2022-08-21T12:09:55;96614.17;;;20.16;77.03
34205;BME280;20471;49.680;20.074;2022-08-21T12:12:32;96609.66;;;20.03;77.57
34205;BME280;20471;49.680;20.074;2022-08-21T12:15:22;96614.35;;;19.98;77.96
34205;BME280;20471;49.680;20.074;2022-08-21T12:18:04;96603.13;;;19.97;78.05
34205;BME280;20471;49.680;20.074;2022-08-21T12:20:37;96606.17;;;19.93;78.25
34205;BME280;20471;49.680;20.074;2022-08-21T12:25:43;96606.17;;;19.93;78.53
34205;BME280;20471;49.680;20.074;2022-08-21T12:28:28;96599.02;;;19.97;78.31
34205;BME280;20471;49.680;20.074;2022-08-21T12:30:56;96600.56;;;20.05;78.53
34205;BME280;20471;49.680;20.074;2022-08-21T12:36:09;96597.92;;;20.22;78.54
34205;BME280;20471;49.680;20.074;2022-08-21T12:38:48;96592.28;;;20.34;78.25
34205;BME280;20471;49.680;20.074;2022-08-21T12:41:30;96592.27;;;20.39;78.02
34205;BME280;20471;49.680;20.074;2022-08-21T12:44:01;96602.56;;;20.47;77.74
34205;BME280;20471;49.680;20.074;2022-08-21T12:46:36;96612.41;;;20.51;77.50
34205;BME280;20471;49.680;20.074;2022-08-21T12:52:16;96620.83;;;20.55;77.10
34205;BME280;20471;49.680;20.074;2022-08-21T12:54:47;96621.09;;;20.56;76.88
34205;BME280;20471;49.680;20.074;2022-08-21T12:57:25;96618.97;;;20.53;76.65
34205;BME280;20471;49.680;20.074;2022-08-21T12:59:55;96617.62;;;20.50;76.51
34205;BME280;20471;49.680;20.074;2022-08-21T13:02:32;96617.95;;;20.43;76.40
34205;BME280;20471;49.680;20.074;2022-08-21T13:05:02;96614.95;;;20.42;76.41
34205;BME280;20471;49.680;20.074;2022-08-21T13:07:34;96610.84;;;20.42;76.33
34205;BME280;20471;49.680;20.074;2022-08-21T13:10:21;96620.49;;;20.40;76.29
34205;BME280;20471;49.680;20.074;2022-08-21T13:12:49;96611.19;;;20.38;76.19
34205;BME280;20471;49.680;20.074;2022-08-21T13:15:22;96603.53;;;20.33;76.17
34205;BME280;20471;49.680;20.074;2022-08-21T13:17:51;96607.75;;;20.25;76.26
34205;BME280;20471;49.680;20.074;2022-08-21T13:20:24;96608.06;;;20.21;76.33
34205;BME280;20471;49.680;20.074;2022-08-21T13:22:52;96608.91;;;20.19;76.32
34205;BME280;20471;49.680;20.074;2022-08-21T13:25:21;96612.17;;;20.21;76.51
34205;BME280;20471;49.680;20.074;2022-08-21T13:32:58;96609.52;;;20.16;76.31
34205;BME280;20471;49.680;20.074;2022-08-21T13:35:35;96613.64;;;20.13;76.12
34205;BME280;20471;49.680;20.074;2022-08-21T13:38:05;96618.04;;;20.12;76.28
34205;BME280;20471;49.680;20.074;2022-08-21T13:40:41;96633.35;;;20.16;76.28
34205;BME280;20471;49.680;20.074;2022-08-21T13:43:14;96633.91;;;20.15;76.17
34205;BME280;20471;49.680;20.074;2022-08-21T13:45:50;96638.28;;;20.16;76.20
34205;BME280;20471;49.680;20.074;2022-08-21T13:48:18;96637.46;;;20.16;76.21
34205;BME280;20471;49.680;20.074;2022-08-21T13:50:46;96642.67;;;20.14;76.18
34205;BME280;20471;49.680;20.074;2022-08-21T13:53:27;96650.08;;;20.14;76.18
34205;BME280;20471;49.680;20.074;2022-08-21T13:55:53;96655.31;;;20.10;76.28
34205;BME280;20471;49.680;20.074;2022-08-21T13:58:28;96650.69;;;20.06;76.33
34205;BME280;20471;49.680;20.074;2022-08-21T14:00:59;96648.82;;;20.04;76.45
34205;BME280;20471;49.680;20.074;2022-08-21T14:06:16;96642.79;;;20.04;76.58
34205;BME280;20471;49.680;20.074;2022-08-21T14:08:59;96636.44;;;20.06;76.59
34205;BME280;20471;49.680;20.074;2022-08-21T14:11:32;96644.06;;;20.12;76.58
34205;BME280;20471;49.680;20.074;2022-08-21T14:14:04;96632.00;;;20.13;76.42
34205;BME280;20471;49.680;20.074;2022-08-21T14:16:46;96635.01;;;20.14;76.47
34205;BME280;20471;49.680;20.074;2022-08-21T14:19:21;96631.23;;;20.07;76.25
34205;BME280;20471;49.680;20.074;2022-08-21T14:21:49;96639.98;;;20.09;76.31
34205;BME280;20471;49.680;20.074;2022-08-21T14:27:01;96635.67;;;20.03;76.28
34205;BME280;20471;49.680;20.074;2022-08-21T14:29:35;96642.58;;;19.96;76.35
34205;BME280;20471;49.680;20.074;2022-08-21T14:32:13;96644.52;;;19.93;76.51
34205;BME280;20471;49.680;20.074;2022-08-21T14:34:41;96645.30;;;19.98;76.49